Time;durP1;ratioP1;P1;durP2;ratioP2;P2;SDS_P1;SDS_P2;PMS_P1;PMS_P2;Temp;Humidity;BMP_temperature;BMP_pressure;BME280_temperature;BME280_humidity;BME280_pressure;Samples;Min_cycle;Max_cycle;Signal;HPM_P1;HPM_P2
2021/09/07 00:00:34;;;;;;;8.15;7.32;;;22.30;60.60;;;;;;5092012;28;20177;-66
2021/09/07 00:03:00;;;;;;;8.38;7.57;;;22.20;60.60;;;;;;5091451;28;20678;-66
2021/09/07 00:05:26;;;;;;;8.73;7.82;;;22.20;60.60;;;;;;5091870;28;20180;-66
2021/09/07 00:07:51;;;;;;;8.20;7.40;;;22.20;60.50;;;;;;5091816;28;20281;-65
2021/09/07 00:10:16;;;;;;;8.27;7.50;;;22.30;60.60;;;;;;5092682;28;20644;-65
2021/09/07 00:12:42;;;;;;;8.40;7.60;;;22.20;60.60;;;;;;5096193;28;20193;-64
2021/09/07 00:15:09;;;;;;;7.55;6.85;;;22.20;60.60;;;;;;5095722;28;20197;-65
2021/09/07 00:17:34;;;;;;;8.43;7.60;;;22.20;60.60;;;;;;5095840;28;20174;-65
2021/09/07 00:20:00;;;;;;;8.07;7.38;;;22.20;60.60;;;;;;5096523;28;20223;-66
2021/09/07 00:22:25;;;;;;;7.70;7.00;;;22.20;60.60;;;;;;5095083;28;20271;-66
2021/09/07 00:24:51;;;;;;;7.15;6.43;;;22.20;60.60;;;;;;5096268;28;20227;-65
2021/09/07 00:27:16;;;;;;;8.60;7.72;;;22.20;60.60;;;;;;5096230;28;20178;-65
2021/09/07 00:29:42;;;;;;;7.07;6.38;;;22.20;60.60;;;;;;5095135;28;20205;-65
2021/09/07 00:32:08;;;;;;;8.20;7.40;;;22.20;60.70;;;;;;5096015;28;20166;-66
2021/09/07 00:34:34;;;;;;;7.63;6.93;;;22.20;60.60;;;;;;5095959;28;20268;-66
2021/09/07 00:37:00;;;;;;;8.23;7.43;;;22.20;60.70;;;;;;5095436;28;20170;-66
2021/09/07 00:39:26;;;;;;;7.63;6.93;;;22.20;60.60;;;;;;5095768;28;20610;-66
2021/09/07 00:41:51;;;;;;;7.80;7.10;;;22.20;60.60;;;;;;5095962;28;20202;-65
2021/09/07 00:44:23;;;;;;;7.28;6.68;;;22.20;60.60;;;;;;5095246;28;20260;-67
2021/09/07 00:46:53;;;;;;;8.68;7.95;;;22.20;60.60;;;;;;5095773;28;20198;-65
2021/09/07 00:49:19;;;;;;;6.78;6.07;;;22.20;60.60;;;;;;5096034;28;20213;-67
2021/09/07 00:51:45;;;;;;;8.43;7.63;;;22.20;60.70;;;;;;5094997;28;20177;-66
2021/09/07 00:54:11;;;;;;;8.05;7.25;;;22.20;60.70;;;;;;5111437;28;20651;-66
2021/09/07 00:56:36;;;;;;;7.68;6.97;;;22.20;60.70;;;;;;5095411;28;20182;-66
2021/09/07 00:59:02;;;;;;;8.02;7.22;;;22.20;60.70;;;;;;5110609;28;20170;-67
2021/09/07 01:01:28;;;;;;;7.85;7.05;;;22.20;61.50;;;;;;5095187;28;20181;-67
2021/09/07 01:03:53;;;;;;;7.65;6.90;;;22.10;60.60;;;;;;5095700;28;20199;-66
2021/09/07 01:06:18;;;;;;;7.40;6.70;;;22.10;60.60;;;;;;5095008;28;20669;-66
2021/09/07 01:08:44;;;;;;;7.93;7.13;;;22.10;60.70;;;;;;5095107;28;20260;-66
2021/09/07 01:11:09;;;;;;;7.47;6.82;;;22.10;60.60;;;;;;5110560;28;20174;-66
2021/09/07 01:13:35;;;;;;;7.20;6.55;;;22.10;60.60;;;;;;5095007;28;20510;-66
2021/09/07 01:16:01;;;;;;;8.32;7.53;;;22.10;60.60;;;;;;5095236;28;20539;-65
2021/09/07 01:18:26;;;;;;;7.72;7.03;;;22.10;60.70;;;;;;5094384;28;20934;-66
2021/09/07 01:20:52;;;;;;;7.15;6.55;;;22.10;60.70;;;;;;5094912;28;20221;-66
2021/09/07 01:23:17;;;;;;;7.20;6.50;;;22.10;60.70;;;;;;5095013;28;20197;-66
2021/09/07 01:25:43;;;;;;;7.65;6.93;;;22.10;60.70;;;;;;5093999;28;20211;-65
2021/09/07 01:28:12;;;;;;;7.40;6.70;;;22.10;60.60;;;;;;5094952;28;20240;-66
2021/09/07 01:30:41;;;;;;;7.45;6.70;;;22.10;60.60;;;;;;5094709;28;20221;-65
2021/09/07 01:33:06;;;;;;;6.93;6.32;;;22.10;60.70;;;;;;5094454;28;20640;-66
2021/09/07 01:35:32;;;;;;;8.50;7.60;;;22.10;60.70;;;;;;5094527;28;20299;-66
2021/09/07 01:37:57;;;;;;;7.68;6.72;;;22.10;60.70;;;;;;5094927;28;20170;-66
2021/09/07 01:40:23;;;;;;;7.18;6.53;;;22.10;60.70;;;;;;5093786;28;20184;-66
2021/09/07 01:42:48;;;;;;;7.32;6.47;;;22.10;60.70;;;;;;5094634;28;20187;-66
2021/09/07 01:45:14;;;;;;;7.55;6.85;;;22.10;60.70;;;;;;5094875;28;20214;-67
2021/09/07 01:47:40;;;;;;;6.80;6.20;;;22.10;60.80;;;;;;5093667;28;20257;-66
2021/09/07 01:50:06;;;;;;;7.65;6.88;;;22.10;60.80;;;;;;5094539;28;20216;-67
2021/09/07 01:52:32;;;;;;;6.93;6.22;;;22.10;60.80;;;;;;5094250;28;20185;-66
2021/09/07 01:54:57;;;;;;;7.63;6.93;;;22.10;60.80;;;;;;5093774;28;20177;-65
2021/09/07 01:57:23;;;;;;;7.22;6.50;;;22.10;60.70;;;;;;5093962;28;20219;-66
2021/09/07 01:59:51;;;;;;;7.80;7.10;;;22.10;60.80;;;;;;5094655;28;20182;-66
2021/09/07 02:02:17;;;;;;;7.63;6.93;;;22.10;60.80;;;;;;5093690;28;20217;-67
2021/09/07 02:04:45;;;;;;;7.38;6.68;;;22.10;60.80;;;;;;5094189;28;20205;-67
2021/09/07 02:07:11;;;;;;;7.35;6.65;;;22.10;60.70;;;;;;5094405;28;20180;-67
2021/09/07 02:09:36;;;;;;;7.88;7.07;;;22.00;60.70;;;;;;5093169;28;20201;-67
2021/09/07 02:12:02;;;;;;;7.60;6.90;;;22.10;60.80;;;;;;5094107;28;20173;-66
2021/09/07 02:14:27;;;;;;;6.63;6.03;;;22.10;60.80;;;;;;5093310;28;20624;-66
2021/09/07 02:16:53;;;;;;;7.90;7.10;;;22.00;60.80;;;;;;5094147;28;20252;-66
2021/09/07 02:19:18;;;;;;;7.15;6.47;;;22.10;60.80;;;;;;5094102;28;20205;-66
2021/09/07 02:21:44;;;;;;;6.82;6.25;;;22.10;60.80;;;;;;5092707;28;20245;-66
2021/09/07 02:24:09;;;;;;;7.13;6.43;;;22.00;60.80;;;;;;5093922;28;20178;-66
2021/09/07 02:26:35;;;;;;;8.55;7.60;;;22.00;60.80;;;;;;5093538;28;20169;-66
2021/09/07 02:29:00;;;;;;;6.85;6.25;;;22.00;60.90;;;;;;5093219;28;20209;-66
2021/09/07 02:31:26;;;;;;;7.43;6.72;;;22.00;60.90;;;;;;5093568;28;20170;-65
2021/09/07 02:33:51;;;;;;;6.82;6.22;;;22.00;60.90;;;;;;5093215;28;20222;-66
2021/09/07 02:36:20;;;;;;;7.45;6.70;;;22.00;60.80;;;;;;5092939;28;20173;-66
2021/09/07 02:38:46;;;;;;;6.93;6.32;;;22.00;60.90;;;;;;5093749;28;20192;-66
2021/09/07 02:41:11;;;;;;;7.95;7.15;;;22.00;60.90;;;;;;5093506;28;20640;-66
2021/09/07 02:43:38;;;;;;;6.82;6.13;;;22.00;60.90;;;;;;5092466;28;20577;-66
2021/09/07 02:46:05;;;;;;;6.90;6.10;;;22.00;60.90;;;;;;5093781;28;20234;-66
2021/09/07 02:48:30;;;;;;;7.13;6.43;;;22.00;60.90;;;;;;5093056;28;20475;-67
2021/09/07 02:50:56;;;;;;;7.90;7.10;;;22.00;60.90;;;;;;5092770;28;20210;-66
2021/09/07 02:53:21;;;;;;;7.07;6.38;;;22.00;61.00;;;;;;5093094;28;20188;-67
2021/09/07 02:55:47;;;;;;;7.82;6.88;;;22.00;60.90;;;;;;5093275;28;20196;-66
2021/09/07 02:58:12;;;;;;;6.63;6.03;;;22.20;61.00;;;;;;5092582;28;20269;-67
2021/09/07 03:00:38;;;;;;;7.15;6.45;;;22.00;60.90;;;;;;5093181;28;20648;-67
2021/09/07 03:03:03;;;;;;;6.57;5.97;;;22.00;60.90;;;;;;5093145;28;20519;-66
2021/09/07 03:05:29;;;;;;;7.65;6.85;;;22.00;61.00;;;;;;5092337;28;20170;-67
2021/09/07 03:07:54;;;;;;;6.88;6.22;;;22.00;61.00;;;;;;5093115;28;20657;-66
2021/09/07 03:10:20;;;;;;;7.10;6.40;;;22.00;61.00;;;;;;5092724;28;20303;-66
2021/09/07 03:12:45;;;;;;;7.65;6.57;;;22.00;61.00;;;;;;5092509;28;20223;-66
2021/09/07 03:15:11;;;;;;;7.53;6.80;;;22.00;61.00;;;;;;5093091;28;20177;-66
2021/09/07 03:17:36;;;;;;;7.82;7.13;;;22.00;61.00;;;;;;5092796;28;20170;-65
2021/09/07 03:20:02;;;;;;;7.70;7.00;;;22.00;61.00;;;;;;5092242;28;20595;-65
2021/09/07 03:22:30;;;;;;;7.00;6.30;;;22.00;61.00;;;;;;5092268;28;20751;-66
2021/09/07 03:24:56;;;;;;;7.68;6.88;;;21.90;61.00;;;;;;5092087;28;20554;-65
2021/09/07 03:27:22;;;;;;;8.00;7.20;;;22.00;61.00;;;;;;5092578;28;20170;-66
2021/09/07 03:29:47;;;;;;;7.65;6.85;;;21.90;60.90;;;;;;5092882;28;20683;-65
2021/09/07 03:32:13;;;;;;;6.97;6.28;;;22.00;61.10;;;;;;5092178;28;20205;-65
2021/09/07 03:34:38;;;;;;;8.20;7.40;;;21.90;61.00;;;;;;5092299;28;20176;-66
2021/09/07 03:37:04;;;;;;;7.40;6.70;;;21.90;61.00;;;;;;5092576;28;20166;-65
2021/09/07 03:39:29;;;;;;;7.60;6.47;;;21.90;61.00;;;;;;5091517;28;20182;-67
2021/09/07 03:41:55;;;;;;;7.53;6.82;;;21.90;61.00;;;;;;5092663;28;20190;-65
2021/09/07 03:44:20;;;;;;;6.70;6.05;;;21.90;61.10;;;;;;5092036;28;20525;-67
2021/09/07 03:46:46;;;;;;;6.53;5.93;;;21.90;61.00;;;;;;5091953;28;20173;-67
2021/09/07 03:49:11;;;;;;;6.82;6.20;;;21.90;61.00;;;;;;5092485;28;20706;-67
2021/09/07 03:51:37;;;;;;;7.47;6.78;;;21.90;61.10;;;;;;5092299;28;20174;-67
2021/09/07 03:54:02;;;;;;;7.70;6.90;;;21.90;61.10;;;;;;5091600;28;20186;-66
2021/09/07 03:56:29;;;;;;;7.60;6.82;;;21.90;61.10;;;;;;5091685;28;20170;-66
2021/09/07 03:58:54;;;;;;;7.60;6.90;;;21.90;61.10;;;;;;5092492;28;20247;-66
2021/09/07 04:01:20;;;;;;;7.35;6.75;;;21.90;61.20;;;;;;5091261;28;20632;-66
2021/09/07 04:03:45;;;;;;;7.90;6.65;;;21.90;61.20;;;;;;5091996;28;20205;-66
2021/09/07 04:06:11;;;;;;;7.82;6.63;;;21.90;61.20;;;;;;5092711;28;20595;-66
2021/09/07 04:08:36;;;;;;;8.18;7.32;;;21.90;61.10;;;;;;5091183;28;20176;-66
2021/09/07 04:11:02;;;;;;;7.20;6.50;;;21.90;61.20;;;;;;5092010;28;20177;-66
2021/09/07 04:13:27;;;;;;;7.95;7.20;;;21.90;61.20;;;;;;5092132;28;20177;-64
2021/09/07 04:15:53;;;;;;;7.65;6.75;;;21.90;61.20;;;;;;5091570;28;20173;-65
2021/09/07 04:18:18;;;;;;;7.22;6.53;;;21.90;61.20;;;;;;5092084;28;20239;-67
2021/09/07 04:20:44;;;;;;;7.85;7.13;;;21.90;61.20;;;;;;5091657;28;20627;-66
2021/09/07 04:23:09;;;;;;;7.30;6.55;;;21.80;61.20;;;;;;5091352;28;20169;-67
2021/09/07 04:25:37;;;;;;;7.85;6.90;;;21.80;61.20;;;;;;5091729;28;20184;-66
2021/09/07 04:28:02;;;;;;;7.50;6.80;;;21.90;61.30;;;;;;5091251;28;20608;-67
2021/09/07 04:30:28;;;;;;;6.95;6.35;;;21.80;61.20;;;;;;5091781;28;20217;-66
2021/09/07 04:32:54;;;;;;;6.72;6.13;;;21.80;61.30;;;;;;5092223;28;20620;-66
2021/09/07 04:35:19;;;;;;;7.20;6.50;;;21.80;61.20;;;;;;5091404;28;20174;-67
2021/09/07 04:37:45;;;;;;;6.85;6.25;;;21.80;61.30;;;;;;5091846;28;20227;-66
2021/09/07 04:40:10;;;;;;;7.35;6.68;;;21.80;61.20;;;;;;5091940;28;20298;-67
2021/09/07 04:42:36;;;;;;;7.65;6.95;;;21.80;61.30;;;;;;5091063;28;20256;-67
2021/09/07 04:45:01;;;;;;;8.25;7.45;;;21.80;61.30;;;;;;5092103;28;20289;-66
2021/09/07 04:47:27;;;;;;;7.45;6.75;;;21.80;61.30;;;;;;5091608;28;20197;-67
2021/09/07 04:49:52;;;;;;;7.72;7.00;;;21.80;61.30;;;;;;5090988;28;20564;-66
2021/09/07 04:52:18;;;;;;;7.47;6.75;;;21.80;61.30;;;;;;5091839;28;20177;-66
2021/09/07 04:54:43;;;;;;;7.07;6.47;;;21.80;61.30;;;;;;5091325;28;20170;-66
2021/09/07 04:57:09;;;;;;;7.05;6.45;;;21.80;61.20;;;;;;5092917;28;20261;-66
2021/09/07 04:59:34;;;;;;;7.78;7.00;;;21.80;61.30;;;;;;5095209;28;20541;-67
2021/09/07 05:02:00;;;;;;;7.60;6.35;;;21.80;61.30;;;;;;5095479;28;20174;-66
2021/09/07 05:04:25;;;;;;;6.60;6.00;;;21.80;61.30;;;;;;5094589;28;20174;-67
2021/09/07 05:06:51;;;;;;;7.65;6.95;;;21.80;61.20;;;;;;5095502;28;20641;-66
2021/09/07 05:09:16;;;;;;;7.30;6.63;;;21.80;61.30;;;;;;5095219;28;20296;-66
2021/09/07 05:11:42;;;;;;;7.40;6.70;;;21.80;61.30;;;;;;5094290;28;20518;-65
2021/09/07 05:14:07;;;;;;;8.13;7.35;;;21.80;61.30;;;;;;5095434;28;20170;-66
2021/09/07 05:16:33;;;;;;;7.05;6.45;;;21.80;61.40;;;;;;5095074;28;20196;-66
2021/09/07 05:18:58;;;;;;;7.50;6.80;;;21.80;61.40;;;;;;5094580;28;20173;-65
2021/09/07 05:21:24;;;;;;;7.50;6.80;;;21.80;61.40;;;;;;5094762;28;20362;-66
2021/09/07 05:23:49;;;;;;;7.85;7.05;;;21.70;61.20;;;;;;5095130;28;20170;-65
2021/09/07 05:26:15;;;;;;;7.28;6.57;;;21.70;61.20;;;;;;5094547;28;20181;-65
2021/09/07 05:28:40;;;;;;;7.93;7.10;;;21.80;61.30;;;;;;5094778;28;20165;-66
2021/09/07 05:31:06;;;;;;;7.45;6.75;;;21.70;61.20;;;;;;5095026;28;20639;-66
2021/09/07 05:33:31;;;;;;;8.10;7.35;;;21.80;61.30;;;;;;5093901;28;20632;-66
2021/09/07 05:35:57;;;;;;;7.88;7.05;;;21.80;61.40;;;;;;5094914;28;20181;-66
2021/09/07 05:38:22;;;;;;;7.38;6.68;;;21.70;61.20;;;;;;5093864;28;20181;-66
2021/09/07 05:40:49;;;;;;;7.93;7.13;;;21.70;61.20;;;;;;5095004;28;20625;-66
2021/09/07 05:43:15;;;;;;;7.68;6.97;;;21.70;61.20;;;;;;5094811;28;20174;-67
2021/09/07 05:45:40;;;;;;;7.45;6.75;;;21.70;61.20;;;;;;5093798;28;20174;-66
2021/09/07 05:48:06;;;;;;;8.00;7.25;;;21.80;61.30;;;;;;5094646;28;20628;-67
2021/09/07 05:50:32;;;;;;;7.18;6.47;;;21.70;61.20;;;;;;5094378;28;20209;-67
2021/09/07 05:52:57;;;;;;;7.90;7.18;;;21.70;61.10;;;;;;5093749;28;20765;-66
2021/09/07 05:55:23;;;;;;;7.57;6.88;;;21.80;61.20;;;;;;5094289;28;20253;-66
2021/09/07 05:57:52;;;;;;;7.43;6.65;;;21.70;62.00;;;;;;5094548;28;20262;-66
2021/09/07 06:00:18;;;;;;;7.45;6.55;;;21.70;61.10;;;;;;5093709;28;20544;-67
2021/09/07 06:02:43;;;;;;;8.65;7.35;;;21.70;61.10;;;;;;5094167;28;20246;-66
2021/09/07 06:05:09;;;;;;;7.68;6.97;;;21.70;61.10;;;;;;5094475;28;20235;-67
2021/09/07 06:07:35;;;;;;;7.18;6.47;;;21.80;61.20;;;;;;5092448;28;20170;-66
2021/09/07 06:10:00;;;;;;;7.22;6.60;;;21.80;61.10;;;;;;5093878;28;20205;-66
2021/09/07 06:12:26;;;;;;;7.55;6.85;;;21.80;61.10;;;;;;5093852;28;20223;-66
2021/09/07 06:14:52;;;;;;;7.97;7.28;;;21.80;61.10;;;;;;5093425;28;20580;-64
2021/09/07 06:17:17;;;;;;;8.20;7.40;;;21.80;61.20;;;;;;5094402;28;20252;-66
2021/09/07 06:19:43;;;;;;;8.07;7.38;;;21.80;61.10;;;;;;5093862;28;20178;-66
2021/09/07 06:22:08;;;;;;;8.43;7.47;;;21.80;61.10;;;;;;5093215;28;20222;-66
2021/09/07 06:24:34;;;;;;;7.53;6.80;;;21.80;61.10;;;;;;5093974;28;20186;-66
2021/09/07 06:26:59;;;;;;;7.65;6.70;;;21.80;61.10;;;;;;5094101;28;20174;-66
2021/09/07 06:29:25;;;;;;;8.15;7.35;;;21.80;61.00;;;;;;5092967;28;20326;-66
2021/09/07 06:31:50;;;;;;;7.65;6.95;;;21.80;60.90;;;;;;5093863;28;20173;-65
2021/09/07 06:34:23;;;;;;;8.13;7.03;;;21.90;60.90;;;;;;5093715;28;20211;-65
2021/09/07 06:36:49;;;;;;;7.90;6.68;;;21.90;61.60;;;;;;5093225;28;20185;-66
2021/09/07 06:39:14;;;;;;;7.63;6.85;;;21.90;60.70;;;;;;5094044;28;20223;-67
2021/09/07 06:41:40;;;;;;;7.85;7.03;;;21.90;60.60;;;;;;5092619;28;20682;-67
2021/09/07 06:44:06;;;;;;;8.38;7.57;;;21.90;60.60;;;;;;5093640;28;20177;-68
2021/09/07 06:46:31;;;;;;;9.10;7.47;;;22.00;60.60;;;;;;5093361;28;20169;-67
2021/09/07 06:48:56;;;;;;;8.68;7.80;;;22.00;60.60;;;;;;5092957;28;20181;-66
2021/09/07 06:51:22;;;;;;;8.82;7.80;;;22.00;60.50;;;;;;5093085;28;20193;-66
2021/09/07 06:53:47;;;;;;;10.95;9.35;;;22.00;60.50;;;;;;5093591;28;20169;-66
2021/09/07 06:56:13;;;;;;;9.70;8.68;;;22.00;60.50;;;;;;5092868;28;20629;-66
2021/09/07 06:58:39;;;;;;;11.57;9.10;;;22.00;60.50;;;;;;5093254;28;20222;-67
2021/09/07 07:01:04;;;;;;;11.18;9.95;;;22.00;60.50;;;;;;5093445;28;20261;-66
2021/09/07 07:03:31;;;;;;;13.27;11.85;;;22.00;60.50;;;;;;5092434;28;20180;-66
2021/09/07 07:05:57;;;;;;;15.68;11.63;;;22.00;60.50;;;;;;5093015;28;20794;-65
2021/09/07 07:08:22;;;;;;;17.65;14.35;;;22.00;60.50;;;;;;5093122;28;20206;-67
2021/09/07 07:10:48;;;;;;;15.43;13.52;;;22.00;60.40;;;;;;5092439;28;20287;-67
2021/09/07 07:13:13;;;;;;;16.55;14.63;;;22.00;60.30;;;;;;5093228;28;20185;-67
2021/09/07 07:15:39;;;;;;;14.98;13.27;;;22.00;60.20;;;;;;5092844;28;20221;-66
2021/09/07 07:18:04;;;;;;;16.60;12.75;;;22.00;60.20;;;;;;5092370;28;20636;-64
2021/09/07 07:20:31;;;;;;;20.65;13.55;;;22.00;60.50;;;;;;5092301;28;20204;-66
2021/09/07 07:22:56;;;;;;;15.18;13.05;;;22.00;60.30;;;;;;5092807;28;20257;-66
2021/09/07 07:25:22;;;;;;;19.52;13.23;;;22.10;60.20;;;;;;5091908;28;20213;-66
2021/09/07 07:27:48;;;;;;;14.52;12.93;;;22.00;60.20;;;;;;5092930;28;20181;-65
2021/09/07 07:30:13;;;;;;;15.55;12.93;;;22.00;60.20;;;;;;5092750;28;20202;-67
2021/09/07 07:32:39;;;;;;;13.68;12.05;;;22.10;60.30;;;;;;5091673;28;20693;-66
2021/09/07 07:35:05;;;;;;;14.40;12.10;;;22.10;60.30;;;;;;5092639;28;20178;-67
2021/09/07 07:37:30;;;;;;;12.50;11.30;;;22.10;60.30;;;;;;5092476;28;20169;-67
2021/09/07 07:40:02;;;;;;;13.80;11.73;;;22.10;60.20;;;;;;5092109;28;20173;-66
2021/09/07 07:42:28;;;;;;;13.93;12.15;;;22.10;60.10;;;;;;5092398;28;20636;-66
2021/09/07 07:44:53;;;;;;;12.60;10.75;;;22.20;60.10;;;;;;5092441;28;20259;-66
2021/09/07 07:47:19;;;;;;;13.25;10.98;;;22.20;60.10;;;;;;5091790;28;20232;-67
2021/09/07 07:49:44;;;;;;;12.73;11.52;;;22.30;60.20;;;;;;5092350;28;20292;-66
2021/09/07 07:52:10;;;;;;;12.77;11.48;;;22.30;60.10;;;;;;5092064;28;20212;-67
2021/09/07 07:54:35;;;;;;;12.45;11.13;;;22.30;60.10;;;;;;5092437;28;20197;-67
2021/09/07 07:57:01;;;;;;;16.70;11.85;;;22.30;60.00;;;;;;5092387;28;20268;-67
2021/09/07 07:59:27;;;;;;;11.82;10.63;;;22.40;60.10;;;;;;5091755;28;20589;-68
2021/09/07 08:01:53;;;;;;;14.32;11.10;;;22.40;60.00;;;;;;5092568;28;20202;-67
2021/09/07 08:04:19;;;;;;;11.77;10.10;;;22.40;60.00;;;;;;5092436;28;20628;-67
2021/09/07 08:06:44;;;;;;;11.98;10.77;;;22.40;60.00;;;;;;5092020;28;20219;-66
2021/09/07 08:09:10;;;;;;;11.43;10.32;;;22.50;60.10;;;;;;5092475;28;20186;-67
2021/09/07 08:11:37;;;;;;;11.68;10.40;;;22.50;60.00;;;;;;5092224;28;20174;-67
2021/09/07 08:14:04;;;;;;;12.07;10.88;;;22.50;60.00;;;;;;5091633;28;20624;-67
2021/09/07 08:16:29;;;;;;;12.35;11.02;;;22.50;60.00;;;;;;5092079;28;20295;-66
2021/09/07 08:18:55;;;;;;;12.48;10.55;;;22.50;60.00;;;;;;5092491;28;20169;-66
2021/09/07 08:21:21;;;;;;;10.95;9.85;;;22.50;59.90;;;;;;5091214;28;20764;-66
2021/09/07 08:23:46;;;;;;;11.32;10.13;;;22.60;59.90;;;;;;5092119;28;20576;-66
2021/09/07 08:26:12;;;;;;;12.57;11.35;;;22.60;59.90;;;;;;5092143;28;20180;-67
2021/09/07 08:28:38;;;;;;;11.60;10.43;;;22.60;59.90;;;;;;5091103;28;20185;-66
2021/09/07 08:31:03;;;;;;;11.70;10.52;;;22.70;59.90;;;;;;5092049;28;20213;-66
2021/09/07 08:33:29;;;;;;;11.23;10.13;;;22.70;59.90;;;;;;5096097;28;20232;-67
2021/09/07 08:35:54;;;;;;;11.20;10.10;;;22.70;59.90;;;;;;5095620;28;20181;-67
2021/09/07 08:38:22;;;;;;;11.65;10.32;;;22.70;59.90;;;;;;5095806;28;20638;-66
2021/09/07 08:40:48;;;;;;;11.07;9.98;;;22.70;60.00;;;;;;5096180;28;20174;-66
2021/09/07 08:43:13;;;;;;;12.43;11.18;;;22.70;59.90;;;;;;5111060;28;20177;-67
2021/09/07 08:45:39;;;;;;;10.52;9.45;;;22.70;59.90;;;;;;5094469;28;20173;-67
2021/09/07 08:48:05;;;;;;;11.30;10.10;;;22.70;59.90;;;;;;5095813;28;20184;-68
2021/09/07 08:50:30;;;;;;;11.95;10.00;;;22.70;59.90;;;;;;5094962;28;20206;-67
2021/09/07 08:52:58;;;;;;;12.05;10.85;;;22.70;59.90;;;;;;5095848;28;20174;-66
2021/09/07 08:55:24;;;;;;;10.85;9.77;;;22.80;60.00;;;;;;5094798;28;20178;-67
2021/09/07 08:57:52;;;;;;;10.73;9.68;;;22.80;60.00;;;;;;5095727;28;20261;-66
2021/09/07 09:00:29;;;;;;;11.43;9.93;;;22.70;59.90;;;;;;5110979;28;20170;-67
2021/09/07 09:02:54;;;;;;;11.95;10.50;;;22.70;59.90;;;;;;5095178;28;20247;-67
2021/09/07 09:05:27;;;;;;;12.07;10.77;;;22.70;60.00;;;;;;5095636;28;20178;-67
2021/09/07 09:07:52;;;;;;;13.27;10.05;;;22.80;60.00;;;;;;5095689;28;20737;-66
2021/09/07 09:10:19;;;;;;;11.57;10.25;;;22.80;60.00;;;;;;5095000;28;20680;-67
2021/09/07 09:12:45;;;;;;;10.65;9.55;;;22.80;59.90;;;;;;5095340;28;20243;-65
2021/09/07 09:15:20;;;;;;;11.40;10.20;;;22.80;59.90;;;;;;5111085;28;20621;-66
2021/09/07 09:17:45;;;;;;;11.43;10.25;;;22.80;59.90;;;;;;5094794;28;20179;-65
2021/09/07 09:20:18;;;;;;;10.95;9.95;;;22.90;59.80;;;;;;5095224;28;20501;-67
2021/09/07 09:22:51;;;;;;;10.65;9.55;;;22.90;59.80;;;;;;5094741;28;20225;-66
2021/09/07 09:25:20;;;;;;;11.27;10.15;;;22.90;59.80;;;;;;5094422;28;20174;-66
2021/09/07 09:27:49;;;;;;;11.52;10.05;;;22.90;59.80;;;;;;5094998;28;20591;-66
2021/09/07 09:30:15;;;;;;;10.77;9.45;;;22.90;60.60;;;;;;5095159;28;20274;-66
2021/09/07 09:32:48;;;;;;;11.07;9.98;;;22.90;59.70;;;;;;5094242;28;20522;-66
2021/09/07 09:35:13;;;;;;;10.27;9.27;;;23.00;59.80;;;;;;5095015;28;20178;-66
2021/09/07 09:37:59;;;;;;;11.13;9.93;;;23.00;59.70;;;;;;5093977;28;20180;-66
2021/09/07 09:40:25;;;;;;;11.98;10.65;;;23.00;59.70;;;;;;5094780;28;20177;-67
2021/09/07 09:42:51;;;;;;;11.75;10.55;;;23.00;59.60;;;;;;5094921;28;20174;-66
2021/09/07 09:45:17;;;;;;;10.52;9.43;;;23.00;59.60;;;;;;5094218;28;20531;-67
2021/09/07 09:47:51;;;;;;;10.85;9.75;;;23.00;59.60;;;;;;5094408;28;20215;-67
2021/09/07 09:50:17;;;;;;;11.02;9.93;;;23.00;59.60;;;;;;5094473;28;20205;-66
2021/09/07 09:52:44;;;;;;;11.63;10.43;;;23.10;59.60;;;;;;5093684;28;20177;-67
2021/09/07 09:55:11;;;;;;;10.50;9.50;;;23.10;59.50;;;;;;5094803;28;20180;-66
2021/09/07 09:57:37;;;;;;;10.27;9.20;;;23.10;59.50;;;;;;5094299;28;20643;-66
2021/09/07 10:00:04;;;;;;;11.00;9.50;;;23.10;59.40;;;;;;5093770;28;20185;-66
2021/09/07 10:02:30;;;;;;;10.77;9.77;;;23.20;59.40;;;;;;5094152;28;20170;-67
2021/09/07 10:04:55;;;;;;;10.55;9.43;;;23.20;59.30;;;;;;5094477;28;20185;-67
2021/09/07 10:07:21;;;;;;;10.45;9.18;;;23.20;59.30;;;;;;5093475;28;20182;-67
2021/09/07 10:09:48;;;;;;;10.75;9.65;;;23.20;59.30;;;;;;5109909;28;20680;-66
2021/09/07 10:12:29;;;;;;;11.65;10.15;;;23.20;59.20;;;;;;5094294;28;20182;-67
2021/09/07 10:15:13;;;;;;;10.63;9.52;;;23.20;59.10;;;;;;5092237;28;20207;-66
2021/09/07 10:20:15;;;;;;;10.40;8.65;;;23.40;59.10;;;;;;5109064;28;20249;-65
2021/09/07 10:23:08;;;;;;;10.77;9.55;;;23.40;59.10;;;;;;5092029;28;20232;-64
2021/09/07 10:25:54;;;;;;;10.30;9.10;;;23.40;59.00;;;;;;5092997;28;20197;-65
2021/09/07 10:28:42;;;;;;;10.07;9.07;;;23.40;58.90;;;;;;5091316;28;20181;-65
2021/09/07 10:31:09;;;;;;;9.55;8.43;;;23.50;58.90;;;;;;5093265;28;20263;-64
2021/09/07 10:33:45;;;;;;;10.52;9.45;;;23.40;58.90;;;;;;5093003;28;20193;-65
2021/09/07 10:36:21;;;;;;;10.02;9.02;;;23.50;58.80;;;;;;5092851;28;20185;-65
2021/09/07 10:38:54;;;;;;;10.25;9.18;;;23.50;58.80;;;;;;5093303;28;20268;-65
2021/09/07 10:41:29;;;;;;;9.35;8.35;;;23.50;58.80;;;;;;5092956;28;20182;-66
2021/09/07 10:43:56;;;;;;;9.23;8.32;;;23.50;58.80;;;;;;5093834;28;20203;-67
2021/09/07 10:46:41;;;;;;;11.07;9.52;;;23.50;58.80;;;;;;5093213;28;20174;-66
2021/09/07 10:49:46;;;;;;;11.88;9.38;;;23.50;58.80;;;;;;5092821;28;20178;-65
2021/09/07 10:52:15;;;;;;;12.43;9.48;;;23.50;58.70;;;;;;5087435;28;20181;-65
2021/09/07 10:54:53;;;;;;;10.88;9.30;;;23.50;58.70;;;;;;5092658;28;20193;-64
2021/09/07 10:57:52;;;;;;;11.52;9.00;;;23.50;58.70;;;;;;5093537;28;20223;-64
2021/09/07 11:00:21;;;;;;;9.77;8.77;;;23.60;58.70;;;;;;5093411;28;20181;-65
2021/09/07 11:02:51;;;;;;;9.98;8.40;;;23.60;58.70;;;;;;5092304;28;20173;-64
2021/09/07 11:05:25;;;;;;;10.32;8.35;;;23.60;58.70;;;;;;5093027;28;20257;-65
2021/09/07 11:08:01;;;;;;;9.43;8.43;;;23.60;58.60;;;;;;5093277;28;20165;-64
2021/09/07 11:10:33;;;;;;;9.77;8.77;;;23.60;58.50;;;;;;5092297;28;20363;-64
2021/09/07 11:13:03;;;;;;;10.82;9.48;;;23.60;58.50;;;;;;5093095;28;20173;-64
2021/09/07 11:15:31;;;;;;;9.60;8.70;;;23.60;58.40;;;;;;5092804;28;20212;-63
2021/09/07 11:18:04;;;;;;;11.57;9.05;;;23.70;58.40;;;;;;5092097;28;20628;-64
2021/09/07 11:20:42;;;;;;;10.10;8.75;;;23.70;58.40;;;;;;5092876;28;20534;-65
2021/09/07 11:23:21;;;;;;;9.52;8.57;;;23.70;58.40;;;;;;5092192;28;20718;-65
2021/09/07 11:25:48;;;;;;;11.55;8.70;;;23.70;58.30;;;;;;5092981;28;20181;-64
2021/09/07 11:28:15;;;;;;;11.38;8.88;;;23.70;58.30;;;;;;5092736;28;20177;-65
2021/09/07 11:30:44;;;;;;;9.75;8.77;;;23.70;58.20;;;;;;5091906;28;20217;-65
2021/09/07 11:33:13;;;;;;;10.88;8.00;;;23.70;58.20;;;;;;5092724;28;20178;-65
2021/09/07 11:35:44;;;;;;;11.55;8.88;;;23.70;58.20;;;;;;5092507;28;20272;-65
2021/09/07 11:38:11;;;;;;;11.05;9.20;;;23.70;58.00;;;;;;5091948;28;20212;-65
2021/09/07 11:40:50;;;;;;;9.35;8.20;;;23.70;58.00;;;;;;5092259;28;20261;-66
2021/09/07 11:43:38;;;;;;;9.30;8.23;;;23.80;58.00;;;;;;5092844;28;20208;-65
2021/09/07 11:46:07;;;;;;;11.05;8.35;;;23.80;58.00;;;;;;5092116;28;20178;-65
2021/09/07 11:48:33;;;;;;;10.93;8.32;;;23.80;57.90;;;;;;5100499;28;20193;-65
2021/09/07 11:50:58;;;;;;;9.55;8.52;;;23.80;57.80;;;;;;5100476;28;20197;-64
2021/09/07 11:53:24;;;;;;;9.07;8.18;;;23.80;57.70;;;;;;5110403;28;20251;-65
2021/09/07 11:55:51;;;;;;;9.02;8.05;;;23.90;57.70;;;;;;5099867;28;20260;-64
2021/09/07 11:58:42;;;;;;;9.45;8.52;;;23.90;57.70;;;;;;5091939;28;20178;-66
2021/09/07 12:01:19;;;;;;;10.57;8.35;;;23.90;57.60;;;;;;5091283;28;20247;-65
2021/09/07 12:03:49;;;;;;;9.57;8.13;;;23.90;57.60;;;;;;5100137;28;20176;-64
2021/09/07 12:06:37;;;;;;;10.07;7.85;;;23.90;57.60;;;;;;5111309;28;20174;-65
2021/09/07 12:09:28;;;;;;;8.68;7.88;;;23.90;57.60;;;;;;5112448;28;20661;-64
2021/09/07 12:12:02;;;;;;;9.25;7.88;;;23.90;57.60;;;;;;5112637;28;20591;-63
2021/09/07 12:14:34;;;;;;;10.38;8.23;;;23.90;57.70;;;;;;5111798;28;20203;-65
2021/09/07 12:17:04;;;;;;;8.25;7.38;;;23.90;57.70;;;;;;5105970;28;20166;-63
2021/09/07 12:19:46;;;;;;;8.35;7.55;;;23.90;57.70;;;;;;5091089;28;20269;-64
2021/09/07 12:22:17;;;;;;;8.32;7.53;;;23.90;57.70;;;;;;5098532;28;20233;-64
2021/09/07 12:25:00;;;;;;;9.52;8.02;;;23.90;57.70;;;;;;5091881;28;20310;-64
2021/09/07 12:27:27;;;;;;;9.63;7.82;;;24.00;57.80;;;;;;5091423;28;20193;-63
2021/09/07 12:30:12;;;;;;;9.13;8.25;;;24.00;57.70;;;;;;5092002;28;20217;-64
2021/09/07 12:32:53;;;;;;;7.93;7.15;;;24.00;57.70;;;;;;5091771;28;20181;-63
2021/09/07 12:35:28;;;;;;;8.35;7.18;;;24.00;57.60;;;;;;5091583;28;20239;-64
2021/09/07 12:37:54;;;;;;;8.82;8.02;;;24.00;57.70;;;;;;5092134;28;20188;-65
2021/09/07 12:40:19;;;;;;;8.90;8.10;;;24.10;57.70;;;;;;5091701;28;20174;-65
2021/09/07 12:42:45;;;;;;;8.73;7.75;;;24.10;57.70;;;;;;5091385;28;20512;-64
2021/09/07 12:45:10;;;;;;;8.73;7.80;;;24.00;57.70;;;;;;5091800;28;20162;-65